createdAt,value
2018-08-11T00:00:05.219Z,979.42
2018-08-11T00:01:05.210Z,979.43
2018-08-11T00:02:05.213Z,979.41
2018-08-11T00:03:05.208Z,979.40
2018-08-11T00:04:05.201Z,979.44
2018-08-11T00:05:05.197Z,979.45
2018-08-11T00:06:05.200Z,979.42
2018-08-11T00:07:05.187Z,979.45
2018-08-11T00:08:05.186Z,979.43
2018-08-11T00:09:05.185Z,979.42
2018-08-11T00:10:05.182Z,979.38
2018-08-11T00:11:05.177Z,979.45
2018-08-11T00:12:05.173Z,979.41
2018-08-11T00:13:05.170Z,979.40
2018-08-11T00:14:05.163Z,979.40
2018-08-11T00:15:05.166Z,979.41
2018-08-11T00:16:05.164Z,979.43
2018-08-11T00:17:05.156Z,979.41
2018-08-11T00:18:05.148Z,979.36
2018-08-11T00:19:05.149Z,979.41
2018-08-11T00:20:05.140Z,979.42
2018-08-11T00:21:05.140Z,979.40
2018-08-11T00:22:05.135Z,979.39
2018-08-11T00:23:05.129Z,979.43
2018-08-11T00:24:05.128Z,979.40
2018-08-11T00:25:05.125Z,979.42
2018-08-11T00:26:05.123Z,979.42
2018-08-11T00:27:05.119Z,979.43
2018-08-11T00:28:05.110Z,979.45
2018-08-11T00:29:05.109Z,979.44
2018-08-11T00:30:05.103Z,979.42
2018-08-11T00:31:05.100Z,979.44
2018-08-11T00:32:05.101Z,979.46
2018-08-11T00:33:05.091Z,979.46
2018-08-11T00:34:05.091Z,979.44
2018-08-11T00:35:05.083Z,979.46
2018-08-11T00:36:05.084Z,979.43
2018-08-11T00:37:05.075Z,979.41
2018-08-11T00:38:05.075Z,979.43
2018-08-11T00:39:05.073Z,979.46
2018-08-11T00:40:05.063Z,979.43
2018-08-11T00:41:05.060Z,979.43
2018-08-11T00:42:05.056Z,979.44
2018-08-11T00:43:05.058Z,979.45
2018-08-11T00:44:05.049Z,979.46
2018-08-11T00:45:05.050Z,979.48
2018-08-11T00:46:05.045Z,979.45
2018-08-11T00:47:05.041Z,979.49
2018-08-11T00:48:05.040Z,979.49
2018-08-11T00:49:05.030Z,979.45
2018-08-11T00:50:05.025Z,979.48
2018-08-11T00:51:05.019Z,979.50
2018-08-11T00:52:05.018Z,979.48
2018-08-11T00:53:05.020Z,979.48
2018-08-11T00:54:05.010Z,979.50
2018-08-11T00:55:05.009Z,979.52
2018-08-11T00:56:05.005Z,979.50
2018-08-11T00:57:05.002Z,979.52
2018-08-11T00:58:04.996Z,979.51
2018-08-11T00:59:04.990Z,979.49
2018-08-11T01:00:04.987Z,979.52
2018-08-11T01:01:04.981Z,979.53
2018-08-11T01:02:04.982Z,979.53
2018-08-11T01:03:04.977Z,979.55
2018-08-11T01:04:04.971Z,979.57
2018-08-11T01:05:04.970Z,979.53
2018-08-11T01:06:04.968Z,979.51
2018-08-11T01:07:04.958Z,979.52
2018-08-11T01:08:04.961Z,979.48
2018-08-11T01:09:04.949Z,979.56
2018-08-11T01:10:04.949Z,979.53
2018-08-11T01:11:04.948Z,979.55
2018-08-11T01:12:04.940Z,979.54
2018-08-11T01:13:04.936Z,979.59
2018-08-11T01:14:04.930Z,979.53
2018-08-11T01:15:04.926Z,979.57
2018-08-11T01:16:04.929Z,979.55
2018-08-11T01:17:04.920Z,979.53
2018-08-11T01:18:04.921Z,979.57
2018-08-11T01:19:04.917Z,979.58
2018-08-11T01:20:04.913Z,979.62
2018-08-11T01:21:04.905Z,979.57
2018-08-11T01:22:04.899Z,979.64
2018-08-11T01:23:04.896Z,979.61
2018-08-11T01:24:04.892Z,979.61
2018-08-11T01:25:04.889Z,979.61
2018-08-11T01:26:04.889Z,979.62
2018-08-11T01:27:04.885Z,979.65
2018-08-11T01:28:04.880Z,979.64
2018-08-11T01:29:04.871Z,979.61
2018-08-11T01:30:04.873Z,979.63
2018-08-11T01:31:04.866Z,979.60
2018-08-11T01:32:04.866Z,979.61
2018-08-11T01:33:04.861Z,979.61
2018-08-11T01:34:04.856Z,979.58
2018-08-11T01:35:04.847Z,979.61
2018-08-11T01:36:04.848Z,979.56
2018-08-11T01:37:04.845Z,979.59
2018-08-11T01:38:04.847Z,979.57
2018-08-11T01:39:04.835Z,979.54
2018-08-11T01:40:04.829Z,979.59
2018-08-11T01:41:04.827Z,979.57
2018-08-11T01:42:04.824Z,979.58
2018-08-11T01:43:04.820Z,979.58
2018-08-11T01:44:04.834Z,979.59
2018-08-11T01:45:04.806Z,979.58
2018-08-11T01:46:04.808Z,979.60
2018-08-11T01:47:04.800Z,979.60
2018-08-11T01:48:04.795Z,979.61
2018-08-11T01:49:04.790Z,979.60
2018-08-11T01:50:04.790Z,979.64
2018-08-11T01:51:04.787Z,979.61
2018-08-11T01:52:04.780Z,979.64
2018-08-11T01:53:04.778Z,979.61
2018-08-11T01:54:04.770Z,979.58
2018-08-11T01:55:04.770Z,979.61
2018-08-11T01:56:04.767Z,979.59
2018-08-11T01:57:04.764Z,979.59
2018-08-11T01:58:04.759Z,979.62
2018-08-11T01:59:04.750Z,979.61
2018-08-11T02:00:04.748Z,979.62
2018-08-11T02:01:04.740Z,979.64
2018-08-11T02:02:04.745Z,979.69
2018-08-11T02:03:04.735Z,979.67
2018-08-11T02:04:04.731Z,979.67
2018-08-11T02:05:04.726Z,979.70
2018-08-11T02:06:04.721Z,979.68
2018-08-11T02:07:04.719Z,979.69
2018-08-11T02:08:04.716Z,979.69
2018-08-11T02:09:04.711Z,979.67
2018-08-11T02:10:04.709Z,979.67
2018-08-11T02:11:04.705Z,979.68
2018-08-11T02:12:04.694Z,979.67
2018-08-11T02:13:04.697Z,979.67
2018-08-11T02:14:04.687Z,979.68
2018-08-11T02:15:04.684Z,979.68
2018-08-11T02:16:04.685Z,979.72
2018-08-11T02:17:04.674Z,979.70
2018-08-11T02:18:04.674Z,979.73
2018-08-11T02:19:04.671Z,979.71
2018-08-11T02:20:04.667Z,979.72
2018-08-11T02:21:04.664Z,979.69
2018-08-11T02:22:04.653Z,979.72
2018-08-11T02:23:04.653Z,979.66
2018-08-11T02:24:04.682Z,979.72
2018-08-11T02:25:04.643Z,979.67
2018-08-11T02:26:04.636Z,979.69
2018-08-11T02:27:04.634Z,979.70
2018-08-11T02:28:04.629Z,979.68
2018-08-11T02:29:04.624Z,979.68
2018-08-11T02:30:04.625Z,979.68
2018-08-11T02:31:04.619Z,979.66
2018-08-11T02:32:04.620Z,979.67
2018-08-11T02:33:04.608Z,979.69
2018-08-11T02:34:04.601Z,979.69
2018-08-11T02:35:04.601Z,979.64
2018-08-11T02:36:04.595Z,979.68
2018-08-11T02:37:04.589Z,979.71
2018-08-11T02:38:04.592Z,979.67
2018-08-11T02:39:04.580Z,979.69
2018-08-11T02:40:04.584Z,979.72
2018-08-11T02:41:04.577Z,979.71
2018-08-11T02:42:04.568Z,979.72
2018-08-11T02:43:04.566Z,979.68
2018-08-11T02:44:04.560Z,979.73
2018-08-11T02:45:04.552Z,979.68
2018-08-11T02:46:04.550Z,979.74
2018-08-11T02:47:04.548Z,979.75
2018-08-11T02:48:04.547Z,979.77
2018-08-11T02:49:04.538Z,979.75
2018-08-11T02:50:04.531Z,979.76
2018-08-11T02:51:04.531Z,979.75
2018-08-11T02:52:04.529Z,979.73
2018-08-11T02:53:04.519Z,979.76
2018-08-11T02:54:04.520Z,979.73
2018-08-11T02:55:04.514Z,979.75
2018-08-11T02:56:04.508Z,979.75
2018-08-11T02:57:04.501Z,979.75
2018-08-11T02:58:04.517Z,979.75
2018-08-11T02:59:04.497Z,979.72
2018-08-11T03:00:04.495Z,979.75
2018-08-11T03:01:04.483Z,979.79
2018-08-11T03:02:04.484Z,979.75
2018-08-11T03:03:04.484Z,979.79
2018-08-11T03:04:04.479Z,979.81
2018-08-11T03:05:04.465Z,979.78
2018-08-11T03:06:04.462Z,979.77
2018-08-11T03:07:04.458Z,979.81
2018-08-11T03:08:04.458Z,979.78
2018-08-11T03:09:04.447Z,979.81
2018-08-11T03:10:04.444Z,979.76
2018-08-11T03:11:04.444Z,979.79
2018-08-11T03:12:04.438Z,979.79
2018-08-11T03:13:04.431Z,979.77
2018-08-11T03:14:04.487Z,979.80
2018-08-11T03:15:04.421Z,979.77
2018-08-11T03:16:04.417Z,979.77
2018-08-11T03:17:04.418Z,979.78
2018-08-11T03:18:04.411Z,979.81
2018-08-11T03:19:04.407Z,979.82
2018-08-11T03:20:04.407Z,979.84
2018-08-11T03:21:04.400Z,979.85
2018-08-11T03:22:04.394Z,979.85
2018-08-11T03:23:04.396Z,979.84
2018-08-11T03:24:04.386Z,979.86
2018-08-11T03:25:04.398Z,979.87
2018-08-11T03:26:04.372Z,979.87
2018-08-11T03:27:04.373Z,979.89
2018-08-11T03:28:04.368Z,979.93
2018-08-11T03:29:04.357Z,979.93
2018-08-11T03:30:04.366Z,979.90
2018-08-11T03:31:04.354Z,979.94
2018-08-11T03:32:04.347Z,979.96
2018-08-11T03:33:04.343Z,979.97
2018-08-11T03:34:04.335Z,979.94
2018-08-11T03:35:04.338Z,979.96
2018-08-11T03:36:04.326Z,979.93
2018-08-11T03:37:04.321Z,979.99
2018-08-11T03:38:04.316Z,980.01
2018-08-11T03:39:04.317Z,979.91
2018-08-11T03:40:04.312Z,979.95
2018-08-11T03:41:04.302Z,979.96
2018-08-11T03:42:04.300Z,979.99
2018-08-11T03:43:04.296Z,980.00
2018-08-11T03:44:04.290Z,979.99
2018-08-11T03:45:04.307Z,979.97
2018-08-11T03:46:04.332Z,979.97
2018-08-11T03:47:04.277Z,979.99
2018-08-11T03:48:04.273Z,979.97
2018-08-11T03:49:04.274Z,979.98
2018-08-11T03:50:04.262Z,979.97
2018-08-11T03:51:04.261Z,979.99
2018-08-11T03:52:04.255Z,980.02
2018-08-11T03:53:04.256Z,980.01
2018-08-11T03:54:04.248Z,980.06
2018-08-11T03:55:04.244Z,980.05
2018-08-11T03:56:04.236Z,980.06
2018-08-11T03:57:04.235Z,980.10
2018-08-11T03:58:04.226Z,980.08
2018-08-11T03:59:04.226Z,980.08
2018-08-11T04:00:04.217Z,980.06
2018-08-11T04:01:04.216Z,980.05
2018-08-11T04:02:04.216Z,980.07
2018-08-11T04:03:04.209Z,980.09
2018-08-11T04:04:04.203Z,980.12
2018-08-11T04:05:04.194Z,980.11
2018-08-11T04:06:04.190Z,980.12
2018-08-11T04:07:04.190Z,980.14
2018-08-11T04:08:04.180Z,980.16
2018-08-11T04:09:04.179Z,980.17
2018-08-11T04:10:04.172Z,980.18
2018-08-11T04:11:04.167Z,980.19
2018-08-11T04:12:04.164Z,980.18
2018-08-11T04:13:04.166Z,980.20
2018-08-11T04:14:04.154Z,980.23
2018-08-11T04:15:04.153Z,980.26
2018-08-11T04:16:04.145Z,980.27
2018-08-11T04:17:04.147Z,980.31
2018-08-11T04:18:04.140Z,980.33
2018-08-11T04:19:04.131Z,980.30
2018-08-11T04:20:04.131Z,980.39
2018-08-11T04:21:04.126Z,980.34
2018-08-11T04:22:04.122Z,980.33
2018-08-11T04:23:04.111Z,980.35
2018-08-11T04:24:04.107Z,980.34
2018-08-11T04:25:04.108Z,980.38
2018-08-11T04:26:04.098Z,980.38
2018-08-11T04:27:04.098Z,980.39
2018-08-11T04:28:04.094Z,980.41
2018-08-11T04:29:04.088Z,980.39
2018-08-11T04:30:04.084Z,980.41
2018-08-11T04:31:04.081Z,980.43
2018-08-11T04:32:04.075Z,980.47
2018-08-11T04:33:04.070Z,980.45
2018-08-11T04:34:04.069Z,980.50
2018-08-11T04:35:04.061Z,980.49
2018-08-11T04:36:04.057Z,980.52
2018-08-11T04:37:04.046Z,980.54
2018-08-11T04:38:04.046Z,980.54
2018-08-11T04:39:04.041Z,980.52
2018-08-11T04:40:04.042Z,980.53
2018-08-11T04:41:04.033Z,980.54
2018-08-11T04:42:04.079Z,980.54
2018-08-11T04:43:04.025Z,980.55
2018-08-11T04:44:04.021Z,980.56
2018-08-11T04:45:04.016Z,980.56
2018-08-11T04:46:04.011Z,980.58
2018-08-11T04:47:04.005Z,980.57
2018-08-11T04:48:04.005Z,980.62
2018-08-11T04:49:03.997Z,980.60
2018-08-11T04:50:03.986Z,980.60
2018-08-11T04:51:03.984Z,980.58
2018-08-11T04:52:03.980Z,980.61
2018-08-11T04:53:03.972Z,980.59
2018-08-11T04:54:03.975Z,980.60
2018-08-11T04:55:03.964Z,980.59
2018-08-11T04:56:03.987Z,980.59
2018-08-11T04:57:04.127Z,980.61
2018-08-11T04:58:03.952Z,980.63
2018-08-11T04:59:03.949Z,980.64
2018-08-11T05:00:03.941Z,980.66
2018-08-11T05:01:03.939Z,980.63
2018-08-11T05:02:03.930Z,980.69
2018-08-11T05:03:03.927Z,980.68
2018-08-11T05:04:03.929Z,980.74
2018-08-11T05:05:03.922Z,980.73
2018-08-11T05:06:03.922Z,980.72
2018-08-11T05:07:03.909Z,980.73
2018-08-11T05:08:03.903Z,980.71
2018-08-11T05:09:03.896Z,980.70
2018-08-11T05:10:03.897Z,980.74
2018-08-11T05:11:03.895Z,980.70
2018-08-11T05:12:03.888Z,980.73
2018-08-11T05:13:03.881Z,980.74
2018-08-11T05:14:03.881Z,980.78
2018-08-11T05:15:03.877Z,980.77
2018-08-11T05:16:03.866Z,980.78
2018-08-11T05:17:03.865Z,980.78
2018-08-11T05:18:03.856Z,980.81
2018-08-11T05:19:03.855Z,980.76
2018-08-11T05:20:03.855Z,980.75
2018-08-11T05:21:03.844Z,980.75
2018-08-11T05:22:03.840Z,980.79
2018-08-11T05:23:03.837Z,980.82
2018-08-11T05:24:03.832Z,980.80
2018-08-11T05:25:03.832Z,980.83
2018-08-11T05:26:03.828Z,980.84
2018-08-11T05:27:03.820Z,980.83
2018-08-11T05:28:03.814Z,980.83
2018-08-11T05:29:03.809Z,980.87
2018-08-11T05:30:03.804Z,980.82
2018-08-11T05:31:03.808Z,980.87
2018-08-11T05:32:03.798Z,980.87
2018-08-11T05:33:03.813Z,980.89
2018-08-11T05:34:03.788Z,980.89
2018-08-11T05:35:03.788Z,980.90
2018-08-11T05:36:03.779Z,980.89
2018-08-11T05:37:03.784Z,980.88
2018-08-11T05:38:03.776Z,980.88
2018-08-11T05:39:03.771Z,980.88
2018-08-11T05:40:03.762Z,980.87
2018-08-11T05:41:03.756Z,980.89
2018-08-11T05:42:03.752Z,980.90
2018-08-11T05:43:03.754Z,980.94
2018-08-11T05:44:03.748Z,980.94
2018-08-11T05:45:03.741Z,980.95
2018-08-11T05:46:03.736Z,980.97
2018-08-11T05:47:03.736Z,980.93
2018-08-11T05:48:03.729Z,980.90
2018-08-11T05:49:03.728Z,980.92
2018-08-11T05:50:03.726Z,980.93
2018-08-11T05:51:03.719Z,980.93
2018-08-11T05:52:03.721Z,980.93
2018-08-11T05:53:03.713Z,980.96
2018-08-11T05:54:03.714Z,980.95
2018-08-11T05:55:03.752Z,980.97
2018-08-11T05:56:03.703Z,980.97
2018-08-11T05:57:03.702Z,981.01
2018-08-11T05:58:03.700Z,981.00
2018-08-11T05:59:03.691Z,981.00
2018-08-11T06:00:03.693Z,981.00
2018-08-11T06:01:03.686Z,981.00
2018-08-11T06:02:03.681Z,980.99
2018-08-11T06:03:03.684Z,981.01
2018-08-11T06:04:03.719Z,980.99
2018-08-11T06:05:03.670Z,980.98
2018-08-11T06:06:03.669Z,981.01
2018-08-11T06:07:03.669Z,980.99
2018-08-11T06:08:03.668Z,980.98
2018-08-11T06:09:03.660Z,980.99
2018-08-11T06:10:03.663Z,981.01
2018-08-11T06:11:03.659Z,981.06
2018-08-11T06:12:03.653Z,981.07
2018-08-11T06:13:03.649Z,981.05
2018-08-11T06:14:03.651Z,981.03
2018-08-11T06:15:03.646Z,981.08
2018-08-11T06:16:03.641Z,981.06
2018-08-11T06:17:03.644Z,981.06
2018-08-11T06:18:03.635Z,981.07
2018-08-11T06:19:03.634Z,981.14
2018-08-11T06:20:03.632Z,981.09
2018-08-11T06:21:03.678Z,981.08
2018-08-11T06:22:03.629Z,981.06
2018-08-11T06:23:03.630Z,981.08
2018-08-11T06:24:03.625Z,981.10
2018-08-11T06:25:03.629Z,981.15
2018-08-11T06:26:03.616Z,981.11
2018-08-11T06:27:03.616Z,981.11
2018-08-11T06:28:03.612Z,981.07
2018-08-11T06:29:03.614Z,981.09
2018-08-11T06:30:03.609Z,981.11
2018-08-11T06:31:03.611Z,981.09
2018-08-11T06:32:03.617Z,981.14
2018-08-11T06:33:03.621Z,981.15
2018-08-11T06:34:03.607Z,981.15
2018-08-11T06:35:03.602Z,981.19
2018-08-11T06:36:03.605Z,981.17
2018-08-11T06:37:03.594Z,981.16
2018-08-11T06:38:03.592Z,981.16
2018-08-11T06:39:03.595Z,981.19
2018-08-11T06:40:03.596Z,981.20
2018-08-11T06:41:03.682Z,981.19
2018-08-11T06:42:03.591Z,981.16
2018-08-11T06:43:03.591Z,981.18
2018-08-11T06:44:03.588Z,981.18
2018-08-11T06:45:03.579Z,981.20
2018-08-11T06:46:03.577Z,981.24
2018-08-11T06:47:03.602Z,981.20
2018-08-11T06:48:03.576Z,981.21
2018-08-11T06:49:03.571Z,981.22
2018-08-11T06:50:03.572Z,981.19
2018-08-11T06:51:03.568Z,981.19
2018-08-11T06:52:03.564Z,981.20
2018-08-11T06:53:03.562Z,981.18
2018-08-11T06:54:03.556Z,981.15
2018-08-11T06:55:03.556Z,981.24
2018-08-11T06:56:03.557Z,981.26
2018-08-11T06:57:03.557Z,981.24
2018-08-11T06:58:03.547Z,981.20
2018-08-11T06:59:03.545Z,981.18
2018-08-11T07:00:03.547Z,981.21
2018-08-11T07:01:03.546Z,981.20
2018-08-11T07:02:03.542Z,981.23
2018-08-11T07:03:03.535Z,981.21
2018-08-11T07:04:03.601Z,981.22
2018-08-11T07:05:03.531Z,981.25
2018-08-11T07:06:03.530Z,981.18
2018-08-11T07:07:03.531Z,981.21
2018-08-11T07:08:03.519Z,981.21
2018-08-11T07:09:03.520Z,981.24
2018-08-11T07:10:03.515Z,981.27
2018-08-11T07:11:03.512Z,981.21
2018-08-11T07:12:03.514Z,981.25
2018-08-11T07:13:03.505Z,981.25
2018-08-11T07:14:03.503Z,981.27
2018-08-11T07:15:03.505Z,981.27
2018-08-11T07:16:03.504Z,981.24
2018-08-11T07:17:03.497Z,981.29
2018-08-11T07:18:03.499Z,981.27
2018-08-11T07:19:03.492Z,981.26
2018-08-11T07:20:03.490Z,981.28
2018-08-11T07:21:03.492Z,981.27
2018-08-11T07:22:03.490Z,981.25
2018-08-11T07:23:03.482Z,981.29
2018-08-11T07:24:03.484Z,981.29
2018-08-11T07:25:03.478Z,981.26
2018-08-11T07:26:03.480Z,981.30
2018-08-11T07:27:03.477Z,981.23
2018-08-11T07:28:03.473Z,981.25
2018-08-11T07:29:03.479Z,981.24
2018-08-11T07:30:03.474Z,981.28
2018-08-11T07:31:03.468Z,981.29
2018-08-11T07:32:03.487Z,981.27
2018-08-11T07:33:03.461Z,981.29
2018-08-11T07:34:03.459Z,981.31
2018-08-11T07:35:03.457Z,981.27
2018-08-11T07:36:03.541Z,981.28
2018-08-11T07:37:03.454Z,981.27
2018-08-11T07:38:03.456Z,981.25
2018-08-11T07:39:03.456Z,981.24
2018-08-11T07:40:03.451Z,981.23
2018-08-11T07:41:03.451Z,981.25
2018-08-11T07:42:03.462Z,981.25
2018-08-11T07:43:03.448Z,981.25
2018-08-11T07:44:03.447Z,981.22
2018-08-11T07:45:03.449Z,981.23
2018-08-11T07:46:03.439Z,981.24
2018-08-11T07:47:03.438Z,981.26
2018-08-11T07:48:03.436Z,981.26
2018-08-11T07:49:03.437Z,981.27
2018-08-11T07:50:03.438Z,981.25
2018-08-11T07:51:03.433Z,981.24
2018-08-11T07:52:03.431Z,981.27
2018-08-11T07:53:03.428Z,981.27
2018-08-11T07:54:03.434Z,981.21
2018-08-11T07:55:03.426Z,981.24
2018-08-11T07:56:03.460Z,981.19
2018-08-11T07:57:03.428Z,981.20
2018-08-11T07:58:03.423Z,981.22
2018-08-11T07:59:03.420Z,981.17
2018-08-11T08:00:03.423Z,981.19
2018-08-11T08:01:03.423Z,981.13
2018-08-11T08:02:03.426Z,981.13
2018-08-11T08:03:03.420Z,981.14
2018-08-11T08:04:03.422Z,981.14
2018-08-11T08:05:03.414Z,981.06
2018-08-11T08:06:03.416Z,981.12
2018-08-11T08:07:03.413Z,981.07
2018-08-11T08:08:03.439Z,981.08
2018-08-11T08:09:03.414Z,981.06
2018-08-11T08:10:03.421Z,981.03
2018-08-11T08:11:03.419Z,981.06
2018-08-11T08:12:03.419Z,981.10
2018-08-11T08:13:03.412Z,981.04
2018-08-11T08:14:03.411Z,981.06
2018-08-11T08:15:03.408Z,981.04
2018-08-11T08:16:03.412Z,981.00
2018-08-11T08:17:03.416Z,981.06
2018-08-11T08:18:03.407Z,981.03
2018-08-11T08:19:03.407Z,981.08
2018-08-11T08:20:03.407Z,981.09
2018-08-11T08:21:03.403Z,981.06
2018-08-11T08:22:03.411Z,981.08
2018-08-11T08:23:03.412Z,981.05
2018-08-11T08:24:03.407Z,981.05
2018-08-11T08:25:03.405Z,981.04
2018-08-11T08:26:03.441Z,981.02
2018-08-11T08:27:03.405Z,981.09
2018-08-11T08:28:03.403Z,981.04
2018-08-11T08:29:03.403Z,981.02
2018-08-11T08:30:03.406Z,981.06
2018-08-11T08:31:03.401Z,981.05
2018-08-11T08:32:03.401Z,981.02
2018-08-11T08:33:03.406Z,981.03
2018-08-11T08:34:03.401Z,981.01
2018-08-11T08:35:03.402Z,981.03
2018-08-11T08:36:03.403Z,980.95
2018-08-11T08:37:03.399Z,980.97
2018-08-11T08:38:03.404Z,981.02
2018-08-11T08:39:03.400Z,980.98
2018-08-11T08:40:03.395Z,980.97
2018-08-11T08:41:03.395Z,981.01
2018-08-11T08:42:03.395Z,980.99
2018-08-11T08:43:03.399Z,980.98
2018-08-11T08:44:03.396Z,980.92
2018-08-11T08:45:03.394Z,980.94
2018-08-11T08:46:03.396Z,980.95
2018-08-11T08:47:03.392Z,980.92
2018-08-11T08:48:03.393Z,980.91
2018-08-11T08:49:03.410Z,980.93
2018-08-11T08:50:03.393Z,980.93
2018-08-11T08:51:03.398Z,980.90
2018-08-11T08:52:03.399Z,980.89
2018-08-11T08:53:03.395Z,980.90
2018-08-11T08:54:03.396Z,980.91
2018-08-11T08:55:03.393Z,980.85
2018-08-11T08:56:03.395Z,980.87
2018-08-11T08:57:03.389Z,980.85
2018-08-11T08:58:03.388Z,980.84
2018-08-11T08:59:03.433Z,980.83
2018-08-11T09:00:03.395Z,980.87
2018-08-11T09:01:03.394Z,980.88
2018-08-11T09:02:03.390Z,980.82
2018-08-11T09:03:03.390Z,980.85
2018-08-11T09:04:03.393Z,980.84
2018-08-11T09:05:03.387Z,980.79
2018-08-11T09:06:03.394Z,980.83
2018-08-11T09:07:03.388Z,980.82
2018-08-11T09:08:03.394Z,980.80
2018-08-11T09:09:03.392Z,980.82
2018-08-11T09:10:03.399Z,980.78
2018-08-11T09:11:03.388Z,980.80
2018-08-11T09:12:03.427Z,980.75
2018-08-11T09:13:03.394Z,980.80
2018-08-11T09:14:03.391Z,980.78
2018-08-11T09:15:03.384Z,980.74
2018-08-11T09:16:03.392Z,980.78
2018-08-11T09:17:03.386Z,980.78
2018-08-11T09:18:03.391Z,980.76
2018-08-11T09:19:03.388Z,980.75
2018-08-11T09:20:03.391Z,980.78
2018-08-11T09:21:03.390Z,980.74
2018-08-11T09:22:03.387Z,980.73
2018-08-11T09:23:03.389Z,980.73
2018-08-11T09:24:03.386Z,980.75
2018-08-11T09:25:03.386Z,980.74
2018-08-11T09:26:03.386Z,980.71
2018-08-11T09:27:03.392Z,980.74
2018-08-11T09:28:03.394Z,980.73
2018-08-11T09:29:03.408Z,980.73
2018-08-11T09:30:03.389Z,980.67
2018-08-11T09:31:03.391Z,980.66
2018-08-11T09:32:03.388Z,980.63
2018-08-11T09:33:03.394Z,980.69
2018-08-11T09:34:03.391Z,980.68
2018-08-11T09:35:03.396Z,980.73
2018-08-11T09:36:03.392Z,980.68
2018-08-11T09:37:03.388Z,980.69
2018-08-11T09:38:03.390Z,980.63
2018-08-11T09:39:03.389Z,980.66
2018-08-11T09:40:03.391Z,980.63
2018-08-11T09:41:03.394Z,980.69
2018-08-11T09:42:03.394Z,980.62
2018-08-11T09:43:03.397Z,980.65
2018-08-11T09:44:03.399Z,980.63
2018-08-11T09:45:03.391Z,980.68
2018-08-11T09:46:03.472Z,980.59
2018-08-11T09:47:03.393Z,980.63
2018-08-11T09:48:03.397Z,980.61
2018-08-11T09:49:03.394Z,980.62
2018-08-11T09:50:03.398Z,980.60
2018-08-11T09:51:03.393Z,980.58
2018-08-11T09:52:03.394Z,980.58
2018-08-11T09:53:03.398Z,980.60
2018-08-11T09:54:03.399Z,980.58
2018-08-11T09:55:03.392Z,980.58
2018-08-11T09:56:03.392Z,980.57
2018-08-11T09:57:03.399Z,980.58
2018-08-11T09:58:03.401Z,980.53
2018-08-11T09:59:03.396Z,980.49
2018-08-11T10:00:03.396Z,980.51
2018-08-11T10:01:03.393Z,980.52
2018-08-11T10:02:03.394Z,980.51
2018-08-11T10:03:03.397Z,980.56
2018-08-11T10:04:03.399Z,980.48
2018-08-11T10:05:03.462Z,980.48
2018-08-11T10:06:03.401Z,980.47
2018-08-11T10:07:03.394Z,980.44
2018-08-11T10:08:03.398Z,980.41
2018-08-11T10:09:03.394Z,980.42
2018-08-11T10:10:03.400Z,980.48
2018-08-11T10:11:03.395Z,980.41
2018-08-11T10:12:03.402Z,980.46
2018-08-11T10:13:03.395Z,980.49
2018-08-11T10:14:03.398Z,980.44
2018-08-11T10:15:03.400Z,980.41
2018-08-11T10:16:03.396Z,980.45
2018-08-11T10:17:03.401Z,980.41
2018-08-11T10:18:03.400Z,980.39
2018-08-11T10:19:03.400Z,980.39
2018-08-11T10:20:03.402Z,980.40
2018-08-11T10:21:03.402Z,980.35
2018-08-11T10:22:03.396Z,980.36
2018-08-11T10:23:03.427Z,980.33
2018-08-11T10:24:03.398Z,980.33
2018-08-11T10:25:03.409Z,980.34
2018-08-11T10:26:03.395Z,980.37
2018-08-11T10:27:03.396Z,980.34
2018-08-11T10:28:03.404Z,980.33
2018-08-11T10:29:03.410Z,980.28
2018-08-11T10:30:03.396Z,980.29
2018-08-11T10:31:03.410Z,980.33
2018-08-11T10:32:03.402Z,980.36
2018-08-11T10:33:03.409Z,980.26
2018-08-11T10:34:03.431Z,980.31
2018-08-11T10:35:03.401Z,980.28
2018-08-11T10:36:03.405Z,980.31
2018-08-11T10:37:03.405Z,980.28
2018-08-11T10:38:03.405Z,980.30
2018-08-11T10:39:03.407Z,980.29
2018-08-11T10:40:03.425Z,980.26
2018-08-11T10:41:03.416Z,980.27
2018-08-11T10:42:03.406Z,980.24
2018-08-11T10:43:03.406Z,980.25
2018-08-11T10:44:03.407Z,980.25
2018-08-11T10:45:03.409Z,980.24
2018-08-11T10:46:03.408Z,980.23
2018-08-11T10:47:03.420Z,980.28
2018-08-11T10:48:03.416Z,980.28
2018-08-11T10:49:03.417Z,980.25
2018-08-11T10:50:03.413Z,980.26
2018-08-11T10:51:03.416Z,980.27
2018-08-11T10:52:03.421Z,980.26
2018-08-11T10:53:03.416Z,980.26
2018-08-11T10:54:03.420Z,980.23
2018-08-11T10:55:03.419Z,980.19
2018-08-11T10:56:03.528Z,980.15
2018-08-11T10:57:03.421Z,980.15
2018-08-11T10:58:03.426Z,980.18
2018-08-11T10:59:03.422Z,980.16
2018-08-11T11:00:03.421Z,980.16
2018-08-11T11:01:03.421Z,980.12
2018-08-11T11:02:03.431Z,980.16
2018-08-11T11:03:03.426Z,980.16
2018-08-11T11:04:03.424Z,980.14
2018-08-11T11:05:03.427Z,980.17
2018-08-11T11:06:03.432Z,980.04
2018-08-11T11:07:03.434Z,980.13
2018-08-11T11:08:03.426Z,980.12
2018-08-11T11:09:03.430Z,980.10
2018-08-11T11:10:03.431Z,980.15
2018-08-11T11:11:03.433Z,980.10
2018-08-11T11:12:03.429Z,980.14
2018-08-11T11:13:03.430Z,980.11
2018-08-11T11:14:03.434Z,980.14
2018-08-11T11:15:03.430Z,980.11
2018-08-11T11:16:03.435Z,980.15
2018-08-11T11:17:03.432Z,980.16
2018-08-11T11:18:03.434Z,980.15
2018-08-11T11:19:03.436Z,980.11
2018-08-11T11:20:03.432Z,980.08
2018-08-11T11:21:03.430Z,980.12
2018-08-11T11:22:03.436Z,980.09
2018-08-11T11:23:03.430Z,980.06
2018-08-11T11:24:03.437Z,980.10
2018-08-11T11:25:03.434Z,980.08
2018-08-11T11:26:03.431Z,980.08
2018-08-11T11:27:03.432Z,980.12
2018-08-11T11:28:03.440Z,980.00
2018-08-11T11:29:03.432Z,980.03
2018-08-11T11:30:03.434Z,980.02
2018-08-11T11:31:03.437Z,980.01
2018-08-11T11:32:03.436Z,979.95
2018-08-11T11:33:03.437Z,979.96
2018-08-11T11:34:03.436Z,979.97
2018-08-11T11:35:03.441Z,980.00
2018-08-11T11:36:03.437Z,980.03
2018-08-11T11:37:03.440Z,979.99
2018-08-11T11:38:03.440Z,980.01
2018-08-11T11:39:03.448Z,980.02
2018-08-11T11:40:03.439Z,979.99
2018-08-11T11:41:03.437Z,979.95
2018-08-11T11:42:03.447Z,979.93
2018-08-11T11:43:03.446Z,979.89
2018-08-11T11:44:03.441Z,979.95
2018-08-11T11:45:03.439Z,979.89
2018-08-11T11:46:03.440Z,979.87
2018-08-11T11:47:03.441Z,979.89
2018-08-11T11:48:03.441Z,979.88
2018-08-11T11:49:03.447Z,979.86
2018-08-11T11:50:03.447Z,979.83
2018-08-11T11:51:03.444Z,979.78
2018-08-11T11:52:03.447Z,979.84
2018-08-11T11:53:03.443Z,979.81
2018-08-11T11:54:03.448Z,979.77
2018-08-11T11:55:03.444Z,979.73
2018-08-11T11:56:03.448Z,979.73
2018-08-11T11:57:03.446Z,979.79
2018-08-11T11:58:03.449Z,979.75
2018-08-11T11:59:03.452Z,979.75
2018-08-11T12:00:03.617Z,979.72
2018-08-11T12:01:03.451Z,979.74
2018-08-11T12:02:03.467Z,979.72
2018-08-11T12:03:03.451Z,979.75
2018-08-11T12:04:03.452Z,979.69
2018-08-11T12:05:03.452Z,979.72
2018-08-11T12:06:03.451Z,979.71
2018-08-11T12:07:03.458Z,979.70
2018-08-11T12:08:03.457Z,979.72
2018-08-11T12:09:03.453Z,979.70
2018-08-11T12:10:03.462Z,979.66
2018-08-11T12:11:03.455Z,979.64
2018-08-11T12:12:03.453Z,979.67
2018-08-11T12:13:03.461Z,979.69
2018-08-11T12:14:03.463Z,979.63
2018-08-11T12:15:03.456Z,979.65
2018-08-11T12:16:03.456Z,979.65
2018-08-11T12:17:03.460Z,979.62
2018-08-11T12:18:03.456Z,979.61
2018-08-11T12:19:03.458Z,979.62
2018-08-11T12:20:03.464Z,979.61
2018-08-11T12:21:03.460Z,979.53
2018-08-11T12:22:03.457Z,979.56
2018-08-11T12:23:03.462Z,979.58
2018-08-11T12:24:03.460Z,979.50
2018-08-11T12:25:03.463Z,979.51
2018-08-11T12:26:03.463Z,979.44
2018-08-11T12:27:03.465Z,979.43
2018-08-11T12:28:03.461Z,979.46